sensor_id;sensor_type;location;lat;lon;timestamp;pressure;altitude;pressure_sealevel;temperature
69545;BMP180;56766;52.260;20.746;2022-12-07T00:01:43;99682.40;;;1.90
69545;BMP180;56766;52.260;20.746;2022-12-07T00:04:14;99675.80;;;1.90
69545;BMP180;56766;52.260;20.746;2022-12-07T00:06:45;99674.00;;;1.90
69545;BMP180;56766;52.260;20.746;2022-12-07T00:09:16;99674.00;;;1.90
69545;BMP180;56766;52.260;20.746;2022-12-07T00:11:44;99662.20;;;1.90
69545;BMP180;56766;52.260;20.746;2022-12-07T00:14:16;99662.00;;;1.90
69545;BMP180;56766;52.260;20.746;2022-12-07T00:16:44;99659.00;;;1.90
69545;BMP180;56766;52.260;20.746;2022-12-07T00:19:13;99655.00;;;1.90
69545;BMP180;56766;52.260;20.746;2022-12-07T00:21:41;99658.20;;;1.90
69545;BMP180;56766;52.260;20.746;2022-12-07T00:24:11;99660.60;;;1.96
69545;BMP180;56766;52.260;20.746;2022-12-07T00:26:41;99665.60;;;2.00
69545;BMP180;56766;52.260;20.746;2022-12-07T00:29:17;99666.60;;;1.98
69545;BMP180;56766;52.260;20.746;2022-12-07T00:31:45;99668.60;;;2.00
69545;BMP180;56766;52.260;20.746;2022-12-07T00:34:19;99666.80;;;1.98
69545;BMP180;56766;52.260;20.746;2022-12-07T00:36:48;99665.80;;;1.98
69545;BMP180;56766;52.260;20.746;2022-12-07T00:39:15;99663.40;;;2.00
69545;BMP180;56766;52.260;20.746;2022-12-07T00:41:42;99663.60;;;2.00
69545;BMP180;56766;52.260;20.746;2022-12-07T00:44:09;99660.60;;;2.00
69545;BMP180;56766;52.260;20.746;2022-12-07T00:46:35;99669.80;;;2.00
69545;BMP180;56766;52.260;20.746;2022-12-07T00:49:03;99668.40;;;2.00
69545;BMP180;56766;52.260;20.746;2022-12-07T00:51:29;99665.40;;;2.00
69545;BMP180;56766;52.260;20.746;2022-12-07T00:53:56;99662.20;;;2.00
69545;BMP180;56766;52.260;20.746;2022-12-07T00:56:28;99657.80;;;2.00
69545;BMP180;56766;52.260;20.746;2022-12-07T00:59:01;99658.60;;;2.00
69545;BMP180;56766;52.260;20.746;2022-12-07T01:01:33;99657.00;;;2.00
69545;BMP180;56766;52.260;20.746;2022-12-07T01:04:01;99661.00;;;2.00
69545;BMP180;56766;52.260;20.746;2022-12-07T01:06:30;99656.60;;;2.00
69545;BMP180;56766;52.260;20.746;2022-12-07T01:08:57;99654.00;;;2.00
69545;BMP180;56766;52.260;20.746;2022-12-07T01:11:28;99653.60;;;2.10
69545;BMP180;56766;52.260;20.746;2022-12-07T01:13:58;99652.00;;;2.10
69545;BMP180;56766;52.260;20.746;2022-12-07T01:16:29;99654.40;;;2.10
69545;BMP180;56766;52.260;20.746;2022-12-07T01:18:58;99651.60;;;2.20
69545;BMP180;56766;52.260;20.746;2022-12-07T01:21:32;99647.40;;;2.20
69545;BMP180;56766;52.260;20.746;2022-12-07T01:24:04;99647.80;;;2.20
69545;BMP180;56766;52.260;20.746;2022-12-07T01:26:31;99647.20;;;2.20
69545;BMP180;56766;52.260;20.746;2022-12-07T01:28:58;99644.60;;;2.20
69545;BMP180;56766;52.260;20.746;2022-12-07T01:31:29;99640.00;;;2.20
69545;BMP180;56766;52.260;20.746;2022-12-07T01:33:59;99644.80;;;2.28
69545;BMP180;56766;52.260;20.746;2022-12-07T01:36:30;99644.80;;;2.30
69545;BMP180;56766;52.260;20.746;2022-12-07T01:39:02;99636.00;;;2.30
69545;BMP180;56766;52.260;20.746;2022-12-07T01:41:33;99636.40;;;2.30
69545;BMP180;56766;52.260;20.746;2022-12-07T01:46:50;99635.40;;;2.30
69545;BMP180;56766;52.260;20.746;2022-12-07T01:49:31;99633.80;;;2.30
69545;BMP180;56766;52.260;20.746;2022-12-07T01:52:24;99637.20;;;2.30
69545;BMP180;56766;52.260;20.746;2022-12-07T01:54:59;99637.20;;;2.30
69545;BMP180;56766;52.260;20.746;2022-12-07T01:57:33;99633.40;;;2.30
69545;BMP180;56766;52.260;20.746;2022-12-07T02:00:04;99634.80;;;2.30
69545;BMP180;56766;52.260;20.746;2022-12-07T02:02:46;99626.60;;;2.30
69545;BMP180;56766;52.260;20.746;2022-12-07T02:05:14;99625.80;;;2.30
69545;BMP180;56766;52.260;20.746;2022-12-07T02:07:42;99630.20;;;2.30
69545;BMP180;56766;52.260;20.746;2022-12-07T02:10:23;99626.40;;;2.40
69545;BMP180;56766;52.260;20.746;2022-12-07T02:13:04;99629.80;;;2.40
69545;BMP180;56766;52.260;20.746;2022-12-07T02:30:08;99624.20;;;2.40
69545;BMP180;56766;52.260;20.746;2022-12-07T02:33:00;99619.20;;;2.30
69545;BMP180;56766;52.260;20.746;2022-12-07T02:35:35;99616.20;;;2.30
69545;BMP180;56766;52.260;20.746;2022-12-07T02:38:45;99614.80;;;2.30
69545;BMP180;56766;52.260;20.746;2022-12-07T02:41:28;99615.80;;;2.20
69545;BMP180;56766;52.260;20.746;2022-12-07T02:44:14;99613.80;;;2.20
69545;BMP180;56766;52.260;20.746;2022-12-07T02:46:51;99612.00;;;2.20
69545;BMP180;56766;52.260;20.746;2022-12-07T02:49:23;99615.60;;;2.28
69545;BMP180;56766;52.260;20.746;2022-12-07T02:51:53;99615.00;;;2.30
69545;BMP180;56766;52.260;20.746;2022-12-07T02:54:21;99614.00;;;2.28
69545;BMP180;56766;52.260;20.746;2022-12-07T02:57:13;99610.00;;;2.30
69545;BMP180;56766;52.260;20.746;2022-12-07T03:05:43;99610.20;;;2.20
69545;BMP180;56766;52.260;20.746;2022-12-07T03:08:51;99614.80;;;2.20
69545;BMP180;56766;52.260;20.746;2022-12-07T03:11:45;99615.20;;;2.28
69545;BMP180;56766;52.260;20.746;2022-12-07T03:14:32;99613.60;;;2.30
69545;BMP180;56766;52.260;20.746;2022-12-07T03:17:06;99612.40;;;2.30
69545;BMP180;56766;52.260;20.746;2022-12-07T03:19:37;99606.60;;;2.30
69545;BMP180;56766;52.260;20.746;2022-12-07T03:22:12;99608.00;;;2.30
69545;BMP180;56766;52.260;20.746;2022-12-07T03:24:52;99605.40;;;2.22
69545;BMP180;56766;52.260;20.746;2022-12-07T03:27:29;99612.00;;;2.20
69545;BMP180;56766;52.260;20.746;2022-12-07T03:30:18;99602.60;;;2.30
69545;BMP180;56766;52.260;20.746;2022-12-07T03:33:02;99600.40;;;2.26
69545;BMP180;56766;52.260;20.746;2022-12-07T03:35:39;99600.80;;;2.22
69545;BMP180;56766;52.260;20.746;2022-12-07T03:38:20;99595.60;;;2.28
69545;BMP180;56766;52.260;20.746;2022-12-07T03:41:12;99592.80;;;2.30
69545;BMP180;56766;52.260;20.746;2022-12-07T03:43:42;99590.00;;;2.30
69545;BMP180;56766;52.260;20.746;2022-12-07T03:51:55;99585.00;;;2.22
69545;BMP180;56766;52.260;20.746;2022-12-07T03:54:31;99580.40;;;2.20
69545;BMP180;56766;52.260;20.746;2022-12-07T03:57:02;99584.60;;;2.26
69545;BMP180;56766;52.260;20.746;2022-12-07T03:59:30;99581.60;;;2.20
69545;BMP180;56766;52.260;20.746;2022-12-07T04:02:04;99583.80;;;2.20
69545;BMP180;56766;52.260;20.746;2022-12-07T04:04:33;99582.60;;;2.20
69545;BMP180;56766;52.260;20.746;2022-12-07T04:07:00;99584.40;;;2.20
69545;BMP180;56766;52.260;20.746;2022-12-07T04:09:27;99581.20;;;2.20
69545;BMP180;56766;52.260;20.746;2022-12-07T04:11:54;99579.60;;;2.20
69545;BMP180;56766;52.260;20.746;2022-12-07T04:14:20;99576.80;;;2.20
69545;BMP180;56766;52.260;20.746;2022-12-07T04:16:51;99574.80;;;2.20
69545;BMP180;56766;52.260;20.746;2022-12-07T04:19:23;99570.80;;;2.20
69545;BMP180;56766;52.260;20.746;2022-12-07T04:21:50;99572.00;;;2.20
69545;BMP180;56766;52.260;20.746;2022-12-07T04:24:18;99571.80;;;2.24
69545;BMP180;56766;52.260;20.746;2022-12-07T04:26:46;99572.60;;;2.20
69545;BMP180;56766;52.260;20.746;2022-12-07T04:29:15;99572.80;;;2.20
69545;BMP180;56766;52.260;20.746;2022-12-07T04:31:43;99578.40;;;2.20
69545;BMP180;56766;52.260;20.746;2022-12-07T04:34:12;99576.00;;;2.20
69545;BMP180;56766;52.260;20.746;2022-12-07T04:36:41;99568.20;;;2.20
69545;BMP180;56766;52.260;20.746;2022-12-07T04:39:27;99567.00;;;2.20
69545;BMP180;56766;52.260;20.746;2022-12-07T04:41:56;99565.40;;;2.20
69545;BMP180;56766;52.260;20.746;2022-12-07T04:44:25;99561.20;;;2.10
69545;BMP180;56766;52.260;20.746;2022-12-07T04:46:54;99564.80;;;2.14
69545;BMP180;56766;52.260;20.746;2022-12-07T04:49:21;99566.40;;;2.20
69545;BMP180;56766;52.260;20.746;2022-12-07T04:51:48;99565.60;;;2.20
69545;BMP180;56766;52.260;20.746;2022-12-07T04:54:16;99560.20;;;2.20
69545;BMP180;56766;52.260;20.746;2022-12-07T04:56:43;99558.00;;;2.12
69545;BMP180;56766;52.260;20.746;2022-12-07T04:59:12;99559.40;;;2.20
69545;BMP180;56766;52.260;20.746;2022-12-07T05:01:40;99557.80;;;2.20
69545;BMP180;56766;52.260;20.746;2022-12-07T05:04:08;99558.20;;;2.10
69545;BMP180;56766;52.260;20.746;2022-12-07T05:06:35;99556.20;;;2.10
69545;BMP180;56766;52.260;20.746;2022-12-07T05:09:04;99549.60;;;2.10
69545;BMP180;56766;52.260;20.746;2022-12-07T05:11:30;99551.80;;;2.10
69545;BMP180;56766;52.260;20.746;2022-12-07T05:14:14;99546.20;;;2.10
69545;BMP180;56766;52.260;20.746;2022-12-07T05:16:43;99543.20;;;2.10
69545;BMP180;56766;52.260;20.746;2022-12-07T05:19:11;99539.00;;;2.10
69545;BMP180;56766;52.260;20.746;2022-12-07T05:21:38;99532.60;;;2.10
69545;BMP180;56766;52.260;20.746;2022-12-07T05:24:07;99543.20;;;2.10
69545;BMP180;56766;52.260;20.746;2022-12-07T05:26:34;99538.60;;;2.10
69545;BMP180;56766;52.260;20.746;2022-12-07T05:29:01;99534.00;;;2.00
69545;BMP180;56766;52.260;20.746;2022-12-07T05:31:28;99535.00;;;2.00
69545;BMP180;56766;52.260;20.746;2022-12-07T05:33:54;99539.60;;;2.00
69545;BMP180;56766;52.260;20.746;2022-12-07T05:36:22;99538.20;;;2.00
69545;BMP180;56766;52.260;20.746;2022-12-07T05:38:49;99532.20;;;1.96
69545;BMP180;56766;52.260;20.746;2022-12-07T05:41:18;99534.60;;;1.90
69545;BMP180;56766;52.260;20.746;2022-12-07T05:44:04;99536.80;;;1.90
69545;BMP180;56766;52.260;20.746;2022-12-07T05:46:32;99538.20;;;1.90
69545;BMP180;56766;52.260;20.746;2022-12-07T05:49:00;99541.00;;;1.90
69545;BMP180;56766;52.260;20.746;2022-12-07T05:51:27;99541.00;;;1.90
69545;BMP180;56766;52.260;20.746;2022-12-07T05:53:53;99544.00;;;1.88
69545;BMP180;56766;52.260;20.746;2022-12-07T05:56:20;99546.20;;;1.88
69545;BMP180;56766;52.260;20.746;2022-12-07T05:58:47;99544.00;;;1.80
69545;BMP180;56766;52.260;20.746;2022-12-07T06:01:32;99542.00;;;1.80
69545;BMP180;56766;52.260;20.746;2022-12-07T06:03:59;99539.00;;;1.80
69545;BMP180;56766;52.260;20.746;2022-12-07T06:06:26;99543.20;;;1.80
69545;BMP180;56766;52.260;20.746;2022-12-07T06:08:52;99543.20;;;1.70
69545;BMP180;56766;52.260;20.746;2022-12-07T06:11:19;99539.60;;;1.70
69545;BMP180;56766;52.260;20.746;2022-12-07T06:14:05;99536.00;;;1.68
69545;BMP180;56766;52.260;20.746;2022-12-07T06:16:31;99543.20;;;1.60
69545;BMP180;56766;52.260;20.746;2022-12-07T06:18:58;99541.40;;;1.60
69545;BMP180;56766;52.260;20.746;2022-12-07T06:21:25;99536.00;;;1.60
69545;BMP180;56766;52.260;20.746;2022-12-07T06:23:53;99543.00;;;1.60
69545;BMP180;56766;52.260;20.746;2022-12-07T06:26:21;99531.40;;;1.56
69545;BMP180;56766;52.260;20.746;2022-12-07T06:28:48;99533.60;;;1.50
69545;BMP180;56766;52.260;20.746;2022-12-07T06:31:15;99534.60;;;1.50
69545;BMP180;56766;52.260;20.746;2022-12-07T06:33:42;99535.00;;;1.50
69545;BMP180;56766;52.260;20.746;2022-12-07T06:36:09;99538.40;;;1.50
69545;BMP180;56766;52.260;20.746;2022-12-07T06:38:36;99535.60;;;1.50
69545;BMP180;56766;52.260;20.746;2022-12-07T06:41:04;99536.60;;;1.50
69545;BMP180;56766;52.260;20.746;2022-12-07T06:43:31;99538.40;;;1.50
69545;BMP180;56766;52.260;20.746;2022-12-07T06:45:58;99539.20;;;1.56
69545;BMP180;56766;52.260;20.746;2022-12-07T06:48:24;99538.20;;;1.50
69545;BMP180;56766;52.260;20.746;2022-12-07T06:50:51;99540.40;;;1.50
69545;BMP180;56766;52.260;20.746;2022-12-07T06:53:18;99541.40;;;1.58
69545;BMP180;56766;52.260;20.746;2022-12-07T06:55:44;99540.60;;;1.60
69545;BMP180;56766;52.260;20.746;2022-12-07T06:58:11;99538.60;;;1.60
69545;BMP180;56766;52.260;20.746;2022-12-07T07:00:38;99535.80;;;1.60
69545;BMP180;56766;52.260;20.746;2022-12-07T07:03:04;99537.60;;;1.60
69545;BMP180;56766;52.260;20.746;2022-12-07T07:05:31;99540.80;;;1.60
69545;BMP180;56766;52.260;20.746;2022-12-07T07:07:58;99539.40;;;1.60
69545;BMP180;56766;52.260;20.746;2022-12-07T07:10:24;99540.00;;;1.60
69545;BMP180;56766;52.260;20.746;2022-12-07T07:12:51;99541.80;;;1.60
69545;BMP180;56766;52.260;20.746;2022-12-07T07:15:18;99538.80;;;1.60
69545;BMP180;56766;52.260;20.746;2022-12-07T07:17:45;99537.60;;;1.58
69545;BMP180;56766;52.260;20.746;2022-12-07T07:20:12;99539.40;;;1.60
69545;BMP180;56766;52.260;20.746;2022-12-07T07:22:39;99537.60;;;1.60
69545;BMP180;56766;52.260;20.746;2022-12-07T07:25:06;99540.20;;;1.60
69545;BMP180;56766;52.260;20.746;2022-12-07T07:27:33;99538.40;;;1.58
69545;BMP180;56766;52.260;20.746;2022-12-07T07:29:59;99530.80;;;1.60
69545;BMP180;56766;52.260;20.746;2022-12-07T07:32:26;99540.40;;;1.60
69545;BMP180;56766;52.260;20.746;2022-12-07T07:34:53;99542.20;;;1.60
69545;BMP180;56766;52.260;20.746;2022-12-07T07:37:19;99532.00;;;1.62
69545;BMP180;56766;52.260;20.746;2022-12-07T07:39:46;99539.00;;;1.70
69545;BMP180;56766;52.260;20.746;2022-12-07T07:42:13;99538.60;;;1.70
69545;BMP180;56766;52.260;20.746;2022-12-07T07:44:40;99538.00;;;1.70
69545;BMP180;56766;52.260;20.746;2022-12-07T07:47:06;99534.60;;;1.70
69545;BMP180;56766;52.260;20.746;2022-12-07T07:49:33;99534.80;;;1.70
69545;BMP180;56766;52.260;20.746;2022-12-07T07:52:00;99533.40;;;1.78
69545;BMP180;56766;52.260;20.746;2022-12-07T07:54:26;99537.00;;;1.80
69545;BMP180;56766;52.260;20.746;2022-12-07T07:56:53;99535.60;;;1.80
69545;BMP180;56766;52.260;20.746;2022-12-07T07:59:20;99538.00;;;1.80
69545;BMP180;56766;52.260;20.746;2022-12-07T08:01:46;99541.00;;;1.80
69545;BMP180;56766;52.260;20.746;2022-12-07T08:04:13;99543.20;;;1.90
69545;BMP180;56766;52.260;20.746;2022-12-07T08:06:40;99541.60;;;1.84
69545;BMP180;56766;52.260;20.746;2022-12-07T08:09:09;99543.20;;;1.84
69545;BMP180;56766;52.260;20.746;2022-12-07T08:11:35;99545.40;;;1.84
69545;BMP180;56766;52.260;20.746;2022-12-07T08:14:03;99547.80;;;1.90
69545;BMP180;56766;52.260;20.746;2022-12-07T08:16:30;99541.40;;;1.90
69545;BMP180;56766;52.260;20.746;2022-12-07T08:18:57;99546.00;;;1.90
69545;BMP180;56766;52.260;20.746;2022-12-07T08:21:23;99548.80;;;1.92
69545;BMP180;56766;52.260;20.746;2022-12-07T08:23:50;99555.60;;;1.94
69545;BMP180;56766;52.260;20.746;2022-12-07T08:26:17;99554.00;;;1.92
69545;BMP180;56766;52.260;20.746;2022-12-07T08:28:44;99554.60;;;2.00
69545;BMP180;56766;52.260;20.746;2022-12-07T08:31:16;99561.60;;;2.00
69545;BMP180;56766;52.260;20.746;2022-12-07T08:33:47;99567.40;;;2.00
69545;BMP180;56766;52.260;20.746;2022-12-07T08:36:15;99568.00;;;2.10
69545;BMP180;56766;52.260;20.746;2022-12-07T08:38:42;99565.40;;;2.10
69545;BMP180;56766;52.260;20.746;2022-12-07T08:41:09;99572.60;;;2.20
69545;BMP180;56766;52.260;20.746;2022-12-07T08:43:36;99563.60;;;2.20
69545;BMP180;56766;52.260;20.746;2022-12-07T08:48:57;99560.40;;;2.46
69545;BMP180;56766;52.260;20.746;2022-12-07T08:51:25;99559.40;;;2.60
69545;BMP180;56766;52.260;20.746;2022-12-07T08:53:55;99558.80;;;2.60
69545;BMP180;56766;52.260;20.746;2022-12-07T08:56:25;99552.60;;;2.70
69545;BMP180;56766;52.260;20.746;2022-12-07T08:58:52;99552.20;;;2.70
69545;BMP180;56766;52.260;20.746;2022-12-07T09:01:19;99556.00;;;2.70
69545;BMP180;56766;52.260;20.746;2022-12-07T09:03:46;99547.60;;;2.70
69545;BMP180;56766;52.260;20.746;2022-12-07T09:06:12;99551.20;;;2.76
69545;BMP180;56766;52.260;20.746;2022-12-07T09:08:47;99548.20;;;2.80
69545;BMP180;56766;52.260;20.746;2022-12-07T09:11:15;99544.00;;;2.80
69545;BMP180;56766;52.260;20.746;2022-12-07T09:13:42;99543.00;;;2.80
69545;BMP180;56766;52.260;20.746;2022-12-07T09:16:09;99541.40;;;2.90
69545;BMP180;56766;52.260;20.746;2022-12-07T09:18:35;99541.80;;;2.90
69545;BMP180;56766;52.260;20.746;2022-12-07T09:21:02;99537.60;;;2.90
69545;BMP180;56766;52.260;20.746;2022-12-07T09:23:29;99532.00;;;3.00
69545;BMP180;56766;52.260;20.746;2022-12-07T09:26:02;99530.80;;;3.00
69545;BMP180;56766;52.260;20.746;2022-12-07T09:28:31;99528.00;;;3.00
69545;BMP180;56766;52.260;20.746;2022-12-07T09:30:58;99530.40;;;3.06
69545;BMP180;56766;52.260;20.746;2022-12-07T09:33:24;99530.40;;;3.10
69545;BMP180;56766;52.260;20.746;2022-12-07T09:35:52;99532.00;;;3.10
69545;BMP180;56766;52.260;20.746;2022-12-07T09:38:20;99530.40;;;3.10
69545;BMP180;56766;52.260;20.746;2022-12-07T09:40:48;99527.40;;;3.10
69545;BMP180;56766;52.260;20.746;2022-12-07T09:43:22;99528.60;;;3.10
69545;BMP180;56766;52.260;20.746;2022-12-07T09:45:54;99527.60;;;3.10
69545;BMP180;56766;52.260;20.746;2022-12-07T09:48:32;99521.40;;;3.10
69545;BMP180;56766;52.260;20.746;2022-12-07T09:51:01;99515.80;;;3.10
69545;BMP180;56766;52.260;20.746;2022-12-07T09:53:33;99511.80;;;3.10
69545;BMP180;56766;52.260;20.746;2022-12-07T09:56:02;99512.20;;;3.10
69545;BMP180;56766;52.260;20.746;2022-12-07T09:58:32;99514.60;;;3.10
69545;BMP180;56766;52.260;20.746;2022-12-07T10:01:12;99516.00;;;3.10
69545;BMP180;56766;52.260;20.746;2022-12-07T10:03:51;99515.40;;;3.10
69545;BMP180;56766;52.260;20.746;2022-12-07T10:06:18;99518.80;;;3.10
69545;BMP180;56766;52.260;20.746;2022-12-07T10:08:45;99519.60;;;3.18
69545;BMP180;56766;52.260;20.746;2022-12-07T10:11:13;99522.40;;;3.20
69545;BMP180;56766;52.260;20.746;2022-12-07T10:13:52;99518.60;;;3.20
69545;BMP180;56766;52.260;20.746;2022-12-07T10:16:41;99520.20;;;3.20
69545;BMP180;56766;52.260;20.746;2022-12-07T10:19:32;99514.00;;;3.20
69545;BMP180;56766;52.260;20.746;2022-12-07T10:22:07;99517.00;;;3.20
69545;BMP180;56766;52.260;20.746;2022-12-07T10:24:36;99521.00;;;3.20
69545;BMP180;56766;52.260;20.746;2022-12-07T10:27:20;99516.40;;;3.30
69545;BMP180;56766;52.260;20.746;2022-12-07T10:29:51;99511.60;;;3.30
69545;BMP180;56766;52.260;20.746;2022-12-07T10:34:44;99513.40;;;3.40
69545;BMP180;56766;52.260;20.746;2022-12-07T10:39:49;99501.00;;;3.48
69545;BMP180;56766;52.260;20.746;2022-12-07T10:42:24;99498.80;;;3.50
69545;BMP180;56766;52.260;20.746;2022-12-07T10:45:14;99499.80;;;3.56
69545;BMP180;56766;52.260;20.746;2022-12-07T10:59:34;99497.00;;;3.78
69545;BMP180;56766;52.260;20.746;2022-12-07T11:02:40;99497.00;;;3.80
69545;BMP180;56766;52.260;20.746;2022-12-07T11:11:24;99500.20;;;3.70
69545;BMP180;56766;52.260;20.746;2022-12-07T11:14:26;99497.00;;;3.70
69545;BMP180;56766;52.260;20.746;2022-12-07T11:17:02;99505.40;;;3.70
69545;BMP180;56766;52.260;20.746;2022-12-07T11:22:50;99510.20;;;3.60
69545;BMP180;56766;52.260;20.746;2022-12-07T11:25:32;99504.00;;;3.56
69545;BMP180;56766;52.260;20.746;2022-12-07T11:31:24;99490.80;;;3.68
69545;BMP180;56766;52.260;20.746;2022-12-07T11:37:18;99485.00;;;3.90
69545;BMP180;56766;52.260;20.746;2022-12-07T11:39:57;99486.20;;;4.00
69545;BMP180;56766;52.260;20.746;2022-12-07T11:42:42;99487.80;;;4.00
69545;BMP180;56766;52.260;20.746;2022-12-07T11:45:25;99483.20;;;4.10
69545;BMP180;56766;52.260;20.746;2022-12-07T11:48:06;99486.40;;;4.00
69545;BMP180;56766;52.260;20.746;2022-12-07T11:50:51;99480.20;;;4.00
69545;BMP180;56766;52.260;20.746;2022-12-07T11:59:19;99476.80;;;3.90
69545;BMP180;56766;52.260;20.746;2022-12-07T12:02:18;99476.00;;;3.80
69545;BMP180;56766;52.260;20.746;2022-12-07T12:05:26;99476.80;;;3.70
69545;BMP180;56766;52.260;20.746;2022-12-07T12:23:12;99463.20;;;3.50
69545;BMP180;56766;52.260;20.746;2022-12-07T12:25:55;99455.00;;;3.52
69545;BMP180;56766;52.260;20.746;2022-12-07T12:28:38;99454.40;;;3.70
69545;BMP180;56766;52.260;20.746;2022-12-07T12:33:54;99450.40;;;3.78
69545;BMP180;56766;52.260;20.746;2022-12-07T12:46:57;99442.00;;;3.50
69545;BMP180;56766;52.260;20.746;2022-12-07T12:54:30;99441.60;;;3.30
69545;BMP180;56766;52.260;20.746;2022-12-07T12:57:24;99444.40;;;3.30
69545;BMP180;56766;52.260;20.746;2022-12-07T13:02:38;99434.00;;;3.20
69545;BMP180;56766;52.260;20.746;2022-12-07T13:13:04;99432.80;;;3.00
69545;BMP180;56766;52.260;20.746;2022-12-07T13:15:51;99441.80;;;3.00
69545;BMP180;56766;52.260;20.746;2022-12-07T13:23:57;99439.20;;;2.90
69545;BMP180;56766;52.260;20.746;2022-12-07T13:26:42;99438.80;;;2.90
69545;BMP180;56766;52.260;20.746;2022-12-07T13:31:52;99431.80;;;2.90
69545;BMP180;56766;52.260;20.746;2022-12-07T13:34:41;99435.80;;;2.84
69545;BMP180;56766;52.260;20.746;2022-12-07T13:37:32;99435.40;;;2.80
69545;BMP180;56766;52.260;20.746;2022-12-07T13:40:17;99437.20;;;2.80
69545;BMP180;56766;52.260;20.746;2022-12-07T13:42:45;99437.00;;;2.80
69545;BMP180;56766;52.260;20.746;2022-12-07T13:45:31;99435.20;;;2.80
69545;BMP180;56766;52.260;20.746;2022-12-07T13:48:46;99439.20;;;2.70
69545;BMP180;56766;52.260;20.746;2022-12-07T13:51:23;99437.40;;;2.70
69545;BMP180;56766;52.260;20.746;2022-12-07T13:54:10;99445.80;;;2.64
69545;BMP180;56766;52.260;20.746;2022-12-07T13:56:38;99441.60;;;2.60
69545;BMP180;56766;52.260;20.746;2022-12-07T13:59:25;99440.60;;;2.50
69545;BMP180;56766;52.260;20.746;2022-12-07T14:01:53;99444.40;;;2.50
69545;BMP180;56766;52.260;20.746;2022-12-07T14:04:37;99450.80;;;2.40
69545;BMP180;56766;52.260;20.746;2022-12-07T14:07:24;99443.00;;;2.40
69545;BMP180;56766;52.260;20.746;2022-12-07T14:10:01;99448.60;;;2.38
69545;BMP180;56766;52.260;20.746;2022-12-07T14:12:31;99445.80;;;2.30
69545;BMP180;56766;52.260;20.746;2022-12-07T14:15:01;99448.40;;;2.30
69545;BMP180;56766;52.260;20.746;2022-12-07T14:17:29;99450.40;;;2.26
69545;BMP180;56766;52.260;20.746;2022-12-07T14:20:02;99447.60;;;2.20
69545;BMP180;56766;52.260;20.746;2022-12-07T14:22:34;99450.00;;;2.12
69545;BMP180;56766;52.260;20.746;2022-12-07T14:28:03;99452.00;;;2.08
69545;BMP180;56766;52.260;20.746;2022-12-07T14:30:33;99448.20;;;2.00
69545;BMP180;56766;52.260;20.746;2022-12-07T14:33:05;99447.60;;;2.00
69545;BMP180;56766;52.260;20.746;2022-12-07T14:35:32;99445.60;;;1.90
69545;BMP180;56766;52.260;20.746;2022-12-07T14:38:00;99444.20;;;1.90
69545;BMP180;56766;52.260;20.746;2022-12-07T14:40:29;99441.40;;;1.80
69545;BMP180;56766;52.260;20.746;2022-12-07T14:43:02;99436.20;;;1.80
69545;BMP180;56766;52.260;20.746;2022-12-07T14:45:31;99436.40;;;1.74
69545;BMP180;56766;52.260;20.746;2022-12-07T14:47:58;99437.40;;;1.70
69545;BMP180;56766;52.260;20.746;2022-12-07T14:50:24;99443.00;;;1.70
69545;BMP180;56766;52.260;20.746;2022-12-07T14:52:58;99440.60;;;1.60
69545;BMP180;56766;52.260;20.746;2022-12-07T14:55:31;99440.60;;;1.60
69545;BMP180;56766;52.260;20.746;2022-12-07T14:57:59;99438.40;;;1.60
69545;BMP180;56766;52.260;20.746;2022-12-07T15:00:28;99437.40;;;1.60
69545;BMP180;56766;52.260;20.746;2022-12-07T15:02:56;99435.20;;;1.60
69545;BMP180;56766;52.260;20.746;2022-12-07T15:05:23;99433.00;;;1.60
69545;BMP180;56766;52.260;20.746;2022-12-07T15:07:51;99433.00;;;1.60
69545;BMP180;56766;52.260;20.746;2022-12-07T15:10:29;99423.80;;;1.60
69545;BMP180;56766;52.260;20.746;2022-12-07T15:12:59;99424.20;;;1.60
69545;BMP180;56766;52.260;20.746;2022-12-07T15:15:49;99419.60;;;1.60
69545;BMP180;56766;52.260;20.746;2022-12-07T15:18:17;99420.80;;;1.60
69545;BMP180;56766;52.260;20.746;2022-12-07T15:20:46;99423.60;;;1.60
69545;BMP180;56766;52.260;20.746;2022-12-07T15:23:13;99420.80;;;1.60
69545;BMP180;56766;52.260;20.746;2022-12-07T15:25:46;99421.20;;;1.60
69545;BMP180;56766;52.260;20.746;2022-12-07T15:28:14;99426.60;;;1.60
69545;BMP180;56766;52.260;20.746;2022-12-07T15:30:43;99425.40;;;1.60
69545;BMP180;56766;52.260;20.746;2022-12-07T15:33:12;99424.00;;;1.60
69545;BMP180;56766;52.260;20.746;2022-12-07T15:35:44;99414.80;;;1.60
69545;BMP180;56766;52.260;20.746;2022-12-07T15:38:12;99405.80;;;1.64
69545;BMP180;56766;52.260;20.746;2022-12-07T15:40:40;99406.00;;;1.66
69545;BMP180;56766;52.260;20.746;2022-12-07T15:43:10;99407.00;;;1.66
69545;BMP180;56766;52.260;20.746;2022-12-07T15:45:57;99409.00;;;1.70
69545;BMP180;56766;52.260;20.746;2022-12-07T15:48:23;99405.80;;;1.70
69545;BMP180;56766;52.260;20.746;2022-12-07T15:50:50;99406.60;;;1.70
69545;BMP180;56766;52.260;20.746;2022-12-07T15:53:17;99405.20;;;1.70
69545;BMP180;56766;52.260;20.746;2022-12-07T15:55:44;99409.60;;;1.70
69545;BMP180;56766;52.260;20.746;2022-12-07T15:58:10;99409.60;;;1.70
69545;BMP180;56766;52.260;20.746;2022-12-07T16:00:37;99415.80;;;1.74
69545;BMP180;56766;52.260;20.746;2022-12-07T16:03:04;99409.40;;;1.80
69545;BMP180;56766;52.260;20.746;2022-12-07T16:05:30;99411.00;;;1.80
69545;BMP180;56766;52.260;20.746;2022-12-07T16:07:57;99404.40;;;1.80
69545;BMP180;56766;52.260;20.746;2022-12-07T16:10:24;99406.00;;;1.80
69545;BMP180;56766;52.260;20.746;2022-12-07T16:12:50;99396.00;;;1.80
69545;BMP180;56766;52.260;20.746;2022-12-07T16:15:17;99400.00;;;1.84
69545;BMP180;56766;52.260;20.746;2022-12-07T16:17:44;99402.60;;;1.80
69545;BMP180;56766;52.260;20.746;2022-12-07T16:20:11;99402.40;;;1.80
69545;BMP180;56766;52.260;20.746;2022-12-07T16:22:38;99404.60;;;1.80
69545;BMP180;56766;52.260;20.746;2022-12-07T16:25:05;99405.80;;;1.80
69545;BMP180;56766;52.260;20.746;2022-12-07T16:27:31;99406.60;;;1.80
69545;BMP180;56766;52.260;20.746;2022-12-07T16:29:58;99406.60;;;1.90
69545;BMP180;56766;52.260;20.746;2022-12-07T16:32:25;99408.20;;;1.90
69545;BMP180;56766;52.260;20.746;2022-12-07T16:34:52;99407.80;;;1.90
69545;BMP180;56766;52.260;20.746;2022-12-07T16:37:18;99407.40;;;1.90
69545;BMP180;56766;52.260;20.746;2022-12-07T16:39:45;99403.60;;;1.90
69545;BMP180;56766;52.260;20.746;2022-12-07T16:42:12;99396.60;;;1.90